Time;durP1;ratioP1;P1;durP2;ratioP2;P2;SDS_P1;SDS_P2;PMS_P1;PMS_P2;Temp;Humidity;BMP_temperature;BMP_pressure;BME280_temperature;BME280_humidity;BME280_pressure;Samples;Min_cycle;Max_cycle;Signal;HPM_P1;HPM_P2
2022/07/31 00:01:22;;;;;;;7.20;3.50;;;19.70;99.90;;;;;;5050020;28;20444;-74
2022/07/31 00:03:49;;;;;;;6.20;3.33;;;19.70;99.90;;;;;;5050831;28;20479;-74
2022/07/31 00:06:18;;;;;;;10.57;3.50;;;19.70;99.90;;;;;;5049572;28;20423;-73
2022/07/31 00:08:44;;;;;;;3.60;3.30;;;19.70;99.90;;;;;;5051027;28;20514;-73
2022/07/31 00:11:11;;;;;;;4.10;2.90;;;19.70;99.90;;;;;;5051288;28;20461;-74
2022/07/31 00:13:38;;;;;;;4.50;3.03;;;19.70;99.90;;;;;;5050620;28;20533;-73
2022/07/31 00:16:05;;;;;;;3.53;3.23;;;19.70;99.90;;;;;;5050723;28;20456;-74
2022/07/31 00:18:33;;;;;;;3.87;3.50;;;19.70;99.90;;;;;;5050988;28;20476;-73
2022/07/31 00:21:01;;;;;;;5.10;3.47;;;19.70;99.90;;;;;;5051108;28;20462;-74
2022/07/31 00:23:29;;;;;;;6.60;3.60;;;19.50;99.90;;;;;;5050366;28;20530;-74
2022/07/31 00:25:55;;;;;;;4.00;3.10;;;19.40;99.90;;;;;;5050459;28;20453;-73
2022/07/31 00:28:22;;;;;;;4.83;3.50;;;19.40;99.90;;;;;;5050711;28;20472;-73
2022/07/31 00:30:49;;;;;;;3.50;3.20;;;19.40;99.90;;;;;;5050576;28;20456;-73
2022/07/31 00:33:15;;;;;;;4.57;3.40;;;19.40;99.90;;;;;;5047164;28;20445;-74
2022/07/31 00:35:42;;;;;;;7.63;3.43;;;19.40;99.90;;;;;;5049644;28;20855;-73
2022/07/31 00:38:10;;;;;;;4.57;3.40;;;19.30;99.90;;;;;;5050317;28;22136;-73
2022/07/31 00:40:45;;;;;;;4.90;3.83;;;19.30;99.90;;;;;;5050026;28;20504;-74
2022/07/31 00:43:13;;;;;;;3.50;3.20;;;19.30;99.90;;;;;;5050403;28;20422;-74
2022/07/31 00:45:40;;;;;;;3.80;3.40;;;19.30;99.90;;;;;;5050042;28;20968;-73
2022/07/31 00:48:07;;;;;;;5.10;3.30;;;19.30;99.90;;;;;;5050290;28;20960;-74
2022/07/31 00:50:34;;;;;;;4.27;3.87;;;19.30;99.90;;;;;;5050528;28;20457;-74
2022/07/31 00:53:00;;;;;;;4.50;4.10;;;19.20;99.90;;;;;;5049887;28;20479;-74
2022/07/31 00:55:27;;;;;;;4.60;3.60;;;19.20;99.90;;;;;;5049918;28;20502;-74
2022/07/31 00:57:55;;;;;;;6.63;3.90;;;19.20;99.90;;;;;;5049823;28;20439;-74
2022/07/31 01:00:22;;;;;;;3.87;3.50;;;19.20;99.90;;;;;;5050210;28;20442;-74
2022/07/31 01:02:49;;;;;;;4.73;3.93;;;19.20;99.90;;;;;;5049794;28;20431;-74
2022/07/31 01:05:17;;;;;;;7.60;4.50;;;19.20;99.90;;;;;;5046161;28;20907;-74
2022/07/31 01:07:44;;;;;;;3.93;3.63;;;19.10;99.90;;;;;;5049823;28;20443;-73
2022/07/31 01:10:13;;;;;;;12.80;4.10;;;19.10;99.90;;;;;;5050157;28;20510;-73
2022/07/31 01:12:47;;;;;;;5.43;3.83;;;19.10;99.90;;;;;;5049684;28;20518;-73
2022/07/31 01:15:15;;;;;;;4.83;4.43;;;19.20;99.90;;;;;;5049885;28;20466;-73
2022/07/31 01:17:46;;;;;;;4.53;4.00;;;19.20;99.90;;;;;;5049375;28;20468;-74
2022/07/31 01:20:14;;;;;;;6.20;4.33;;;19.10;99.90;;;;;;5050500;28;20448;-73
2022/07/31 01:22:57;;;;;;;7.67;4.43;;;19.10;99.90;;;;;;5050117;28;20431;-73
2022/07/31 01:25:38;;;;;;;5.17;4.20;;;19.00;99.90;;;;;;5047093;28;20458;-74
2022/07/31 01:28:19;;;;;;;6.00;4.30;;;19.00;99.90;;;;;;5050061;28;20487;-73
2022/07/31 01:30:54;;;;;;;5.47;4.30;;;18.90;99.90;;;;;;5049921;28;20448;-74
2022/07/31 01:33:24;;;;;;;7.13;4.23;;;18.90;99.90;;;;;;5049706;28;20494;-73
2022/07/31 01:35:57;;;;;;;4.67;4.17;;;18.90;99.90;;;;;;5048928;28;20456;-73
2022/07/31 01:38:29;;;;;;;6.17;4.10;;;18.90;99.90;;;;;;5050037;28;20483;-74
2022/07/31 01:41:00;;;;;;;4.70;4.20;;;18.80;99.90;;;;;;5049804;28;20543;-74
2022/07/31 01:43:40;;;;;;;5.17;4.47;;;18.80;99.90;;;;;;5049529;28;20427;-74
2022/07/31 01:46:11;;;;;;;5.77;4.40;;;18.80;99.90;;;;;;5049145;28;20835;-74
2022/07/31 01:48:39;;;;;;;4.90;4.00;;;18.80;99.90;;;;;;5049701;28;20493;-73
2022/07/31 01:51:07;;;;;;;4.23;3.60;;;18.80;99.90;;;;;;5049704;28;20452;-73
2022/07/31 01:53:35;;;;;;;8.30;3.90;;;18.80;99.90;;;;;;5049671;28;20468;-73
2022/07/31 01:56:04;;;;;;;4.00;3.60;;;18.80;99.90;;;;;;5049395;28;20575;-73
2022/07/31 01:58:34;;;;;;;4.70;4.13;;;18.70;99.90;;;;;;5049384;28;20475;-73
2022/07/31 02:01:03;;;;;;;6.87;4.00;;;18.70;99.90;;;;;;5049728;28;20427;-74
2022/07/31 02:03:33;;;;;;;6.13;3.67;;;18.60;99.90;;;;;;5048810;28;20431;-74
2022/07/31 02:06:02;;;;;;;4.27;3.87;;;18.60;99.90;;;;;;5049579;28;20460;-74
2022/07/31 02:08:31;;;;;;;4.57;4.00;;;18.60;99.90;;;;;;5050604;28;20517;-73
2022/07/31 02:11:00;;;;;;;5.47;3.53;;;18.60;99.90;;;;;;5053111;28;20441;-73
2022/07/31 02:13:28;;;;;;;6.00;4.50;;;18.60;99.90;;;;;;5052994;28;20504;-73
2022/07/31 02:15:56;;;;;;;4.87;3.90;;;18.50;99.90;;;;;;5052976;28;20423;-74
2022/07/31 02:18:24;;;;;;;6.93;3.50;;;18.50;99.90;;;;;;5052454;28;20467;-74
2022/07/31 02:20:53;;;;;;;6.33;3.80;;;18.50;99.90;;;;;;5053164;28;20441;-73
2022/07/31 02:23:20;;;;;;;3.90;3.53;;;18.50;99.90;;;;;;5052519;28;20465;-74
2022/07/31 02:25:48;;;;;;;4.27;3.73;;;18.60;99.90;;;;;;5052735;28;20466;-74
2022/07/31 02:28:19;;;;;;;4.43;3.40;;;18.50;99.90;;;;;;5050366;28;20546;-73
2022/07/31 02:30:48;;;;;;;4.23;3.73;;;18.60;99.90;;;;;;5050101;28;20502;-74
2022/07/31 02:33:19;;;;;;;4.07;3.63;;;18.60;99.90;;;;;;5052224;28;20444;-74
2022/07/31 02:35:48;;;;;;;3.90;3.47;;;18.60;99.90;;;;;;5048809;28;20524;-74
2022/07/31 02:38:20;;;;;;;4.17;3.83;;;18.60;99.90;;;;;;5052211;28;20464;-74
2022/07/31 02:40:47;;;;;;;7.97;4.13;;;18.60;99.90;;;;;;5052890;28;20518;-74
2022/07/31 02:43:15;;;;;;;3.77;3.47;;;18.60;99.90;;;;;;5052193;28;20499;-74
2022/07/31 02:45:43;;;;;;;5.00;4.27;;;18.60;99.90;;;;;;5051854;28;20546;-74
2022/07/31 02:48:10;;;;;;;4.03;3.70;;;18.60;99.90;;;;;;5052330;28;21070;-74
2022/07/31 02:50:38;;;;;;;3.87;3.57;;;18.60;99.90;;;;;;5052388;28;20526;-74
2022/07/31 02:53:05;;;;;;;4.83;4.27;;;18.60;99.90;;;;;;5052936;28;20547;-73
2022/07/31 02:55:33;;;;;;;4.27;3.87;;;18.60;99.90;;;;;;5052204;28;20445;-74
2022/07/31 02:58:02;;;;;;;3.97;3.60;;;18.50;99.90;;;;;;5052698;28;20443;-73
2022/07/31 03:00:29;;;;;;;5.00;4.10;;;18.50;99.90;;;;;;5052188;28;20484;-73
2022/07/31 03:02:57;;;;;;;4.70;3.57;;;18.50;99.90;;;;;;5053011;28;20453;-74
2022/07/31 03:05:24;;;;;;;5.83;3.80;;;18.40;99.90;;;;;;5052079;28;20488;-74
2022/07/31 03:07:50;;;;;;;4.83;3.57;;;18.40;99.90;;;;;;5052755;28;20564;-73
2022/07/31 03:10:17;;;;;;;4.30;3.90;;;18.30;99.90;;;;;;5052162;28;20444;-74
2022/07/31 03:12:48;;;;;;;4.00;3.80;;;18.30;99.90;;;;;;5052164;28;21020;-74
2022/07/31 03:15:18;;;;;;;4.57;4.00;;;18.30;99.90;;;;;;5051947;28;21037;-74
2022/07/31 03:17:46;;;;;;;3.50;3.20;;;18.20;99.90;;;;;;5052203;28;20489;-74
2022/07/31 03:20:15;;;;;;;4.20;3.90;;;18.20;99.90;;;;;;5051648;28;20772;-74
2022/07/31 03:22:43;;;;;;;6.00;4.20;;;18.10;99.90;;;;;;5051384;28;20506;-73
2022/07/31 03:25:10;;;;;;;4.20;3.90;;;18.10;99.90;;;;;;5051265;28;20553;-74
2022/07/31 03:27:37;;;;;;;4.87;4.00;;;17.90;99.90;;;;;;5051601;28;20447;-73
2022/07/31 03:30:06;;;;;;;4.73;4.33;;;17.90;99.90;;;;;;5051916;28;20459;-73
2022/07/31 03:32:34;;;;;;;5.47;4.30;;;17.90;99.90;;;;;;5051925;28;20919;-73
2022/07/31 03:35:01;;;;;;;4.93;4.40;;;17.90;99.90;;;;;;5051700;28;20463;-74
2022/07/31 03:37:27;;;;;;;4.93;4.00;;;17.80;99.90;;;;;;5051433;28;20497;-73
2022/07/31 03:39:54;;;;;;;4.13;3.80;;;17.80;99.90;;;;;;5051006;28;20465;-74
2022/07/31 03:42:21;;;;;;;5.27;4.20;;;17.80;99.90;;;;;;5051410;28;20481;-74
2022/07/31 03:44:49;;;;;;;6.03;4.10;;;17.80;99.90;;;;;;5050711;28;20475;-73
2022/07/31 03:47:17;;;;;;;4.27;3.60;;;17.80;99.90;;;;;;5051524;28;20443;-74
2022/07/31 03:49:44;;;;;;;6.23;4.20;;;17.70;99.90;;;;;;5051250;28;20481;-74
2022/07/31 03:52:11;;;;;;;6.53;3.90;;;17.70;99.90;;;;;;5051326;28;20442;-74
2022/07/31 03:54:38;;;;;;;5.40;4.30;;;17.60;99.90;;;;;;5051333;28;20502;-74
2022/07/31 03:57:05;;;;;;;4.63;4.10;;;17.50;99.90;;;;;;5051071;28;20451;-73
2022/07/31 03:59:34;;;;;;;4.80;4.43;;;17.50;99.90;;;;;;5050922;28;20922;-74
2022/07/31 04:02:01;;;;;;;5.60;4.60;;;17.40;99.90;;;;;;5051041;28;20483;-73
2022/07/31 04:04:29;;;;;;;4.40;4.07;;;17.40;99.90;;;;;;5050451;28;20497;-73
2022/07/31 04:06:56;;;;;;;5.43;4.00;;;17.30;99.90;;;;;;5049577;28;21008;-73
2022/07/31 04:09:22;;;;;;;4.93;4.37;;;17.40;99.90;;;;;;5051116;28;20506;-73
2022/07/31 04:11:49;;;;;;;5.23;4.50;;;17.40;99.90;;;;;;5049710;28;20441;-73
2022/07/31 04:14:16;;;;;;;5.00;4.60;;;17.30;99.90;;;;;;5046849;28;20445;-74
2022/07/31 04:16:42;;;;;;;5.30;4.80;;;17.30;99.90;;;;;;5050835;28;20468;-74
2022/07/31 04:19:09;;;;;;;5.13;4.73;;;17.30;99.90;;;;;;5050641;28;20482;-73
2022/07/31 04:21:37;;;;;;;5.30;4.80;;;17.30;99.90;;;;;;5050612;28;20427;-73
2022/07/31 04:24:04;;;;;;;8.57;4.90;;;17.30;99.90;;;;;;5049971;28;21177;-77
2022/07/31 04:26:31;;;;;;;5.13;4.40;;;17.40;99.90;;;;;;5050331;28;20472;-78
2022/07/31 04:28:58;;;;;;;4.70;4.30;;;17.40;99.90;;;;;;5050815;28;20473;-78
2022/07/31 04:31:24;;;;;;;4.60;4.13;;;17.60;99.90;;;;;;5050090;28;20423;-79
2022/07/31 04:33:51;;;;;;;5.33;4.43;;;17.90;99.90;;;;;;5050016;28;20441;-79
2022/07/31 04:36:18;;;;;;;5.23;4.67;;;18.00;99.90;;;;;;5050021;28;20792;-77
2022/07/31 04:38:46;;;;;;;5.63;4.40;;;18.30;99.90;;;;;;5050296;28;20831;-77
2022/07/31 04:41:12;;;;;;;6.40;4.23;;;18.40;99.90;;;;;;5050430;28;20507;-77
2022/07/31 04:43:39;;;;;;;5.83;4.40;;;18.60;99.90;;;;;;5051053;28;20433;-77
2022/07/31 04:46:06;;;;;;;4.83;4.27;;;18.60;99.90;;;;;;5050179;28;20542;-77
2022/07/31 04:48:34;;;;;;;5.13;4.63;;;18.70;99.90;;;;;;5051000;28;20463;-77
2022/07/31 04:51:01;;;;;;;6.23;4.10;;;18.90;99.90;;;;;;5050552;28;20456;-78
2022/07/31 04:53:27;;;;;;;4.90;4.37;;;19.00;99.90;;;;;;5050254;28;20435;-79
2022/07/31 04:58:40;;;;;;;4.60;4.20;;;19.20;99.90;;;;;;5050489;28;20915;-79
2022/07/31 05:01:06;;;;;;;4.67;4.17;;;19.30;99.90;;;;;;5050388;28;20427;-78
2022/07/31 05:03:33;;;;;;;10.33;3.97;;;19.40;99.90;;;;;;5050506;28;20541;-78
2022/07/31 05:06:09;;;;;;;5.60;4.10;;;19.50;99.90;;;;;;5050180;28;20484;-77
2022/07/31 05:08:35;;;;;;;6.23;4.70;;;19.60;99.90;;;;;;5050157;28;20476;-77
2022/07/31 05:11:22;;;;;;;6.83;4.77;;;19.70;99.90;;;;;;5049710;28;20453;-77
2022/07/31 05:13:48;;;;;;;4.70;4.17;;;19.70;99.90;;;;;;5046446;28;20456;-77
2022/07/31 05:16:15;;;;;;;4.30;4.00;;;19.80;99.90;;;;;;5049678;28;20444;-77
2022/07/31 05:18:44;;;;;;;7.27;4.23;;;19.90;99.90;;;;;;5049189;28;20475;-77
2022/07/31 05:21:10;;;;;;;6.17;4.60;;;19.90;99.90;;;;;;5049812;28;20555;-77
2022/07/31 05:23:37;;;;;;;7.60;4.10;;;19.80;99.90;;;;;;5050068;28;20460;-77
2022/07/31 05:26:05;;;;;;;5.73;4.07;;;19.80;99.90;;;;;;5049737;28;20484;-77
2022/07/31 05:28:32;;;;;;;4.93;4.50;;;19.90;99.90;;;;;;5048226;28;20503;-78
2022/07/31 05:30:59;;;;;;;5.43;4.33;;;19.90;99.90;;;;;;5049424;28;20506;-77
2022/07/31 05:33:27;;;;;;;4.80;4.20;;;19.90;99.90;;;;;;5049066;28;20452;-77
2022/07/31 05:35:53;;;;;;;6.63;5.17;;;20.00;99.90;;;;;;5049253;28;20449;-77
2022/07/31 05:38:20;;;;;;;4.67;4.27;;;20.10;99.90;;;;;;5049990;28;20468;-77
2022/07/31 05:40:47;;;;;;;4.57;4.23;;;20.10;99.90;;;;;;5049543;28;20491;-77
2022/07/31 05:43:15;;;;;;;4.93;4.20;;;20.00;99.90;;;;;;5050339;28;20448;-77
2022/07/31 05:45:42;;;;;;;5.17;4.40;;;19.80;99.90;;;;;;5053320;28;20487;-77
2022/07/31 05:48:09;;;;;;;4.77;4.37;;;19.80;99.90;;;;;;5053123;28;20551;-77
2022/07/31 05:50:35;;;;;;;6.27;4.17;;;19.80;99.90;;;;;;5053476;28;20427;-77
2022/07/31 05:53:02;;;;;;;7.27;4.43;;;19.90;99.90;;;;;;5053365;28;20460;-77
2022/07/31 05:55:29;;;;;;;22.53;4.80;;;19.90;99.90;;;;;;5052276;28;20448;-77
2022/07/31 05:57:55;;;;;;;5.00;4.60;;;20.00;99.90;;;;;;5053605;28;20545;-77
2022/07/31 06:00:23;;;;;;;4.73;4.33;;;19.90;99.90;;;;;;5053270;28;21137;-76
2022/07/31 06:02:50;;;;;;;6.40;5.57;;;20.00;99.90;;;;;;5053499;28;20460;-76
2022/07/31 06:05:17;;;;;;;5.90;5.40;;;20.00;99.90;;;;;;5052810;28;20480;-76
2022/07/31 06:07:45;;;;;;;7.53;4.20;;;19.90;99.90;;;;;;5052908;28;20483;-76
2022/07/31 06:10:11;;;;;;;5.30;4.80;;;19.70;99.90;;;;;;5052889;28;20459;-77
2022/07/31 06:12:38;;;;;;;6.00;5.40;;;19.70;99.90;;;;;;5052990;28;20458;-76
2022/07/31 06:15:06;;;;;;;6.40;5.37;;;19.70;99.90;;;;;;5053133;28;20479;-75
2022/07/31 06:17:34;;;;;;;5.27;4.87;;;19.60;99.90;;;;;;5052829;28;20471;-74
2022/07/31 06:20:00;;;;;;;7.33;5.97;;;19.50;99.90;;;;;;5053168;28;20462;-74
2022/07/31 06:22:27;;;;;;;6.30;5.70;;;19.40;99.90;;;;;;5052396;28;20448;-74
2022/07/31 06:24:54;;;;;;;7.27;6.57;;;19.30;99.90;;;;;;5052873;28;20453;-74
2022/07/31 06:27:21;;;;;;;6.97;5.97;;;19.20;99.90;;;;;;5052377;28;20476;-73
2022/07/31 06:29:47;;;;;;;8.23;6.00;;;19.20;99.90;;;;;;5052648;28;20453;-74
2022/07/31 06:32:14;;;;;;;6.10;5.00;;;19.30;99.90;;;;;;5052989;28;20427;-73
2022/07/31 06:34:43;;;;;;;10.60;5.87;;;19.30;99.90;;;;;;5052893;28;20456;-73
2022/07/31 06:37:10;;;;;;;6.03;5.53;;;19.50;99.90;;;;;;5052062;28;20476;-73
2022/07/31 06:39:37;;;;;;;7.80;5.77;;;19.60;99.90;;;;;;5053110;28;20452;-74
2022/07/31 06:42:04;;;;;;;6.80;5.23;;;19.70;99.90;;;;;;5053108;28;20494;-75
2022/07/31 06:44:32;;;;;;;6.50;4.83;;;19.70;99.90;;;;;;5051913;28;20771;-76
2022/07/31 06:46:59;;;;;;;5.90;5.30;;;19.70;99.90;;;;;;5052112;28;20491;-74
2022/07/31 06:49:26;;;;;;;6.83;4.90;;;19.70;99.90;;;;;;5051942;28;20535;-75
2022/07/31 06:51:54;;;;;;;8.50;5.20;;;19.70;99.90;;;;;;5052452;28;20465;-76
2022/07/31 06:54:21;;;;;;;5.97;5.40;;;19.70;99.90;;;;;;5051836;28;20453;-75
2022/07/31 06:56:48;;;;;;;7.03;4.57;;;19.60;99.90;;;;;;5051896;28;20614;-74
2022/07/31 06:59:14;;;;;;;5.30;4.77;;;19.60;99.90;;;;;;5052074;28;20455;-73
2022/07/31 07:01:41;;;;;;;10.73;6.10;;;19.70;99.90;;;;;;5051654;28;20463;-73
2022/07/31 07:04:08;;;;;;;8.83;5.87;;;19.60;99.90;;;;;;5052239;28;20508;-74
2022/07/31 07:06:34;;;;;;;5.97;5.20;;;19.70;99.90;;;;;;5051879;28;20487;-75
2022/07/31 07:09:02;;;;;;;6.00;5.27;;;19.70;99.90;;;;;;5050465;28;20468;-74
2022/07/31 07:11:29;;;;;;;5.33;4.83;;;19.70;99.90;;;;;;5051750;28;20441;-73
2022/07/31 07:13:56;;;;;;;5.90;5.40;;;19.70;99.90;;;;;;5051945;28;21173;-73
2022/07/31 07:16:22;;;;;;;5.67;5.07;;;19.80;99.90;;;;;;5051557;28;20444;-74
2022/07/31 07:18:49;;;;;;;7.53;5.83;;;19.80;99.90;;;;;;5051796;28;20445;-73
2022/07/31 07:21:16;;;;;;;11.60;5.90;;;19.80;99.90;;;;;;5051724;28;20510;-74
2022/07/31 07:23:43;;;;;;;10.23;5.60;;;20.00;99.90;;;;;;5051541;28;20963;-74
2022/07/31 07:26:11;;;;;;;8.10;6.03;;;20.10;99.90;;;;;;5051250;28;20505;-74
2022/07/31 07:28:38;;;;;;;5.90;5.40;;;20.20;99.90;;;;;;5051692;28;20479;-74
2022/07/31 07:31:05;;;;;;;8.60;5.27;;;20.30;99.90;;;;;;5051410;28;20452;-74
2022/07/31 07:33:32;;;;;;;9.30;5.67;;;20.40;99.90;;;;;;5051161;28;20514;-74
2022/07/31 07:35:59;;;;;;;5.57;4.77;;;20.50;99.90;;;;;;5051528;28;20532;-74
2022/07/31 07:38:26;;;;;;;8.43;5.10;;;20.70;99.90;;;;;;5051253;28;20447;-74
2022/07/31 07:40:52;;;;;;;6.30;5.40;;;20.80;99.90;;;;;;5051393;28;20444;-72
2022/07/31 07:43:20;;;;;;;9.25;4.28;;;20.90;99.90;;;;;;5049846;28;20578;-76
2022/07/31 07:45:48;;;;;;;5.37;4.97;;;20.90;99.90;;;;;;5049822;28;20689;-75
2022/07/31 07:48:14;;;;;;;5.40;5.00;;;21.00;99.90;;;;;;5048270;28;20480;-77
2022/07/31 07:50:41;;;;;;;5.57;5.03;;;21.00;99.90;;;;;;5048541;28;20451;-76
2022/07/31 07:53:08;;;;;;;6.70;5.90;;;21.00;99.90;;;;;;5046960;28;20510;-78
2022/07/31 07:55:34;;;;;;;5.53;4.60;;;21.00;99.90;;;;;;5047379;28;20535;-78
2022/07/31 07:58:01;;;;;;;8.87;4.57;;;20.90;99.90;;;;;;5047429;28;20472;-71
2022/07/31 08:00:29;;;;;;;5.67;5.13;;;21.00;99.90;;;;;;5047286;28;20522;-75
2022/07/31 08:02:56;;;;;;;7.30;4.60;;;21.10;99.90;;;;;;5047242;28;20823;-73
2022/07/31 08:05:23;;;;;;;6.13;5.43;;;21.20;99.90;;;;;;5046299;28;20456;-77
2022/07/31 08:07:50;;;;;;;9.67;4.87;;;21.30;99.90;;;;;;5047689;28;20476;-78
2022/07/31 08:10:18;;;;;;;5.57;5.07;;;21.60;99.90;;;;;;5048595;28;20479;-78
2022/07/31 08:12:45;;;;;;;6.20;4.80;;;22.10;99.90;;;;;;5047475;28;20510;-77
2022/07/31 08:15:12;;;;;;;5.67;5.07;;;22.50;99.90;;;;;;5046799;28;20829;-78
2022/07/31 08:17:40;;;;;;;5.57;4.90;;;23.00;99.90;;;;;;5047546;28;20473;-77
2022/07/31 08:20:07;;;;;;;5.13;4.63;;;23.30;99.90;;;;;;5046907;28;20445;-77
2022/07/31 08:22:34;;;;;;;5.10;4.60;;;23.40;99.90;;;;;;5047463;28;20440;-78
2022/07/31 08:25:01;;;;;;;5.93;4.57;;;23.40;99.90;;;;;;5046753;28;20456;-76
2022/07/31 08:27:27;;;;;;;5.57;4.70;;;23.20;99.90;;;;;;5046265;28;20488;-76
2022/07/31 08:29:56;;;;;;;8.60;4.43;;;23.00;99.90;;;;;;5047131;28;20451;-76
2022/07/31 08:32:24;;;;;;;9.90;4.80;;;23.00;99.90;;;;;;5047088;28;20967;-77
2022/07/31 08:34:52;;;;;;;5.23;4.77;;;23.00;99.90;;;;;;5047079;28;20499;-76
2022/07/31 08:37:19;;;;;;;6.60;4.97;;;22.80;99.90;;;;;;5046311;28;20518;-78
2022/07/31 08:39:47;;;;;;;6.20;5.03;;;22.80;99.90;;;;;;5046366;28;20452;-75
2022/07/31 08:42:14;;;;;;;6.47;5.00;;;22.70;99.90;;;;;;5046798;28;20468;-75
2022/07/31 08:44:43;;;;;;;7.13;5.37;;;22.70;99.90;;;;;;5046490;28;20968;-75
2022/07/31 08:47:11;;;;;;;6.70;5.00;;;22.60;99.90;;;;;;5046072;28;22157;-76
2022/07/31 08:49:41;;;;;;;7.97;5.03;;;22.70;99.90;;;;;;5046998;28;20456;-75
2022/07/31 08:52:10;;;;;;;6.87;5.27;;;22.70;99.90;;;;;;5046019;28;20839;-74
2022/07/31 08:54:41;;;;;;;5.73;4.80;;;22.80;99.90;;;;;;5046791;28;20464;-76
2022/07/31 08:57:08;;;;;;;10.77;5.43;;;23.00;99.90;;;;;;5046276;28;20541;-78
2022/07/31 08:59:36;;;;;;;6.73;5.10;;;23.30;99.90;;;;;;5046453;28;20510;-75
2022/07/31 09:02:03;;;;;;;6.37;5.77;;;23.40;99.90;;;;;;5046524;28;20448;-77
2022/07/31 09:04:31;;;;;;;6.17;4.80;;;23.60;99.90;;;;;;5047481;28;21079;-77
2022/07/31 09:06:59;;;;;;;10.87;4.83;;;23.90;99.90;;;;;;5049094;28;20484;-78
2022/07/31 09:09:27;;;;;;;8.20;4.30;;;24.20;99.90;;;;;;5049103;28;20456;-77
2022/07/31 09:11:55;;;;;;;5.93;4.50;;;24.50;99.90;;;;;;5050029;28;20468;-76
2022/07/31 09:14:27;;;;;;;7.27;4.57;;;24.70;99.90;;;;;;5049803;28;20998;-77
2022/07/31 09:16:54;;;;;;;10.70;4.37;;;25.10;99.90;;;;;;5050360;28;20468;-75
2022/07/31 09:19:22;;;;;;;6.23;4.27;;;25.50;99.90;;;;;;5053723;28;20440;-75
2022/07/31 09:21:49;;;;;;;6.67;4.27;;;25.80;99.90;;;;;;5054287;28;20467;-81
2022/07/31 09:24:28;;;;;;;7.17;4.10;;;25.70;99.90;;;;;;5050731;28;20475;-79
2022/07/31 09:27:04;;;;;;;14.93;6.50;;;25.70;99.90;;;;;;5053877;28;20484;-79
2022/07/31 09:29:35;;;;;;;8.30;3.97;;;25.80;99.90;;;;;;5054277;28;20448;-76
2022/07/31 09:32:08;;;;;;;5.73;3.60;;;25.60;99.90;;;;;;5054655;28;20452;-78
2022/07/31 09:34:35;;;;;;;7.73;4.20;;;25.70;99.90;;;;;;5053900;28;20444;-77
2022/07/31 09:37:08;;;;;;;5.20;3.80;;;25.70;99.90;;;;;;5053875;28;20472;-80
2022/07/31 09:39:37;;;;;;;6.40;3.37;;;25.80;99.90;;;;;;5054378;28;20483;-72
2022/07/31 09:42:04;;;;;;;5.07;3.47;;;25.60;99.90;;;;;;5054027;28;20502;-74
2022/07/31 09:44:37;;;;;;;3.97;3.57;;;25.60;99.90;;;;;;5053637;28;20444;-76
2022/07/31 09:47:05;;;;;;;3.50;3.10;;;25.70;99.90;;;;;;5053342;28;20542;-73
2022/07/31 09:49:32;;;;;;;3.90;3.50;;;25.50;99.90;;;;;;5053630;28;20460;-75
2022/07/31 09:51:59;;;;;;;6.60;3.33;;;25.40;99.90;;;;;;5054066;28;20452;-74
2022/07/31 09:54:28;;;;;;;3.97;3.67;;;25.40;99.90;;;;;;5053873;28;20826;-79
2022/07/31 09:56:56;;;;;;;5.60;3.67;;;25.30;99.90;;;;;;5053093;28;20522;-73
2022/07/31 09:59:25;;;;;;;7.20;3.70;;;25.40;99.90;;;;;;5054270;28;20865;-73
2022/07/31 10:01:52;;;;;;;7.20;3.20;;;25.30;99.90;;;;;;5053851;28;20448;-78
2022/07/31 10:04:21;;;;;;;3.80;3.10;;;25.30;99.90;;;;;;5053896;28;20447;-78
2022/07/31 10:06:50;;;;;;;3.07;2.87;;;25.30;99.90;;;;;;5049562;28;20488;-76
2022/07/31 10:09:19;;;;;;;3.47;3.13;;;25.20;99.90;;;;;;5053719;28;20499;-76
2022/07/31 10:11:49;;;;;;;5.23;3.23;;;25.00;99.90;;;;;;5051972;28;20479;-76
2022/07/31 10:14:22;;;;;;;7.53;4.17;;;25.00;99.90;;;;;;5051539;28;20819;-75
2022/07/31 10:16:52;;;;;;;6.90;3.20;;;25.00;99.90;;;;;;5053039;28;20836;-75
2022/07/31 10:19:19;;;;;;;6.73;3.73;;;25.00;99.90;;;;;;5052867;28;20482;-79
2022/07/31 10:21:53;;;;;;;5.07;3.60;;;25.10;99.90;;;;;;5051435;28;20506;-76
2022/07/31 10:24:20;;;;;;;5.70;3.90;;;25.00;99.90;;;;;;5052211;28;20888;-75
2022/07/31 10:26:47;;;;;;;4.87;3.67;;;25.00;99.90;;;;;;5051009;28;20484;-75
2022/07/31 10:29:17;;;;;;;8.10;3.67;;;24.80;99.90;;;;;;5051932;28;20453;-78
2022/07/31 10:31:45;;;;;;;4.40;4.00;;;24.70;99.90;;;;;;5052543;28;21023;-77
2022/07/31 10:34:13;;;;;;;6.90;3.43;;;24.80;99.90;;;;;;5052917;28;20498;-78
2022/07/31 10:36:43;;;;;;;8.30;3.83;;;24.80;99.90;;;;;;5052500;28;20843;-77
2022/07/31 10:39:15;;;;;;;6.60;4.10;;;24.70;99.90;;;;;;5052513;28;20460;-74
2022/07/31 10:41:49;;;;;;;7.53;4.07;;;24.80;99.90;;;;;;5052731;28;20455;-76
2022/07/31 10:44:27;;;;;;;11.50;3.70;;;24.80;99.90;;;;;;5049509;28;20444;-76
2022/07/31 10:46:54;;;;;;;4.80;4.20;;;25.00;99.90;;;;;;5050124;28;20487;-73
2022/07/31 10:49:38;;;;;;;4.43;4.03;;;25.30;99.90;;;;;;5051892;28;20444;-78
2022/07/31 10:52:05;;;;;;;4.00;3.60;;;25.50;99.90;;;;;;5052178;28;20452;-78
2022/07/31 10:54:39;;;;;;;5.60;3.87;;;26.00;99.90;;;;;;5051915;28;20461;-76
2022/07/31 10:57:06;;;;;;;9.93;4.77;;;26.30;99.90;;;;;;5050644;28;21049;-80
2022/07/31 10:59:34;;;;;;;5.37;3.73;;;26.70;99.90;;;;;;5052032;28;20525;-77
2022/07/31 11:02:01;;;;;;;4.93;3.77;;;26.90;99.90;;;;;;5052231;28;20548;-76
2022/07/31 11:04:29;;;;;;;4.20;3.80;;;27.00;99.90;;;;;;5052498;28;20452;-78
2022/07/31 11:06:56;;;;;;;3.50;3.20;;;27.30;99.90;;;;;;5051776;28;20491;-78
2022/07/31 11:09:24;;;;;;;4.17;3.20;;;27.60;99.90;;;;;;5051702;28;20527;-73
2022/07/31 11:11:50;;;;;;;6.23;2.93;;;27.90;99.90;;;;;;5051425;28;20491;-77
2022/07/31 11:14:17;;;;;;;4.83;3.63;;;28.20;99.90;;;;;;5047475;28;21040;-77
2022/07/31 11:16:52;;;;;;;4.10;3.63;;;28.30;99.90;;;;;;5051626;28;21881;-78
2022/07/31 11:19:19;;;;;;;5.43;3.37;;;28.20;99.90;;;;;;5051745;28;20448;-76
2022/07/31 11:21:46;;;;;;;3.60;3.03;;;28.30;99.90;;;;;;5049486;28;20514;-78
2022/07/31 11:24:14;;;;;;;3.50;2.83;;;28.00;99.90;;;;;;5051850;28;20566;-76
2022/07/31 11:26:50;;;;;;;6.03;3.00;;;28.00;99.90;;;;;;5051106;28;20808;-77
2022/07/31 11:29:27;;;;;;;3.70;3.23;;;28.00;99.90;;;;;;5048581;28;20448;-76
2022/07/31 11:31:55;;;;;;;7.63;3.43;;;28.00;99.90;;;;;;5051581;28;20539;-76
2022/07/31 11:34:22;;;;;;;3.23;2.93;;;28.20;99.90;;;;;;5051593;28;20449;-77
2022/07/31 11:36:48;;;;;;;2.90;2.50;;;28.30;99.90;;;;;;5051172;28;20468;-76
2022/07/31 11:39:15;;;;;;;2.60;2.40;;;28.40;99.90;;;;;;5051743;28;20510;-78
2022/07/31 11:41:42;;;;;;;3.70;2.40;;;28.10;99.90;;;;;;5051582;28;20445;-77
2022/07/31 11:44:09;;;;;;;3.40;2.27;;;28.20;99.90;;;;;;5051782;28;20444;-76
2022/07/31 11:46:36;;;;;;;8.40;2.83;;;28.30;99.90;;;;;;5051111;28;20495;-77
2022/07/31 11:49:04;;;;;;;4.17;2.40;;;28.40;99.90;;;;;;5052011;28;20535;-77
2022/07/31 11:51:31;;;;;;;3.53;2.90;;;28.30;99.90;;;;;;5051492;28;20449;-78
2022/07/31 11:53:59;;;;;;;5.70;3.00;;;28.20;99.90;;;;;;5051466;28;21014;-77
2022/07/31 11:56:27;;;;;;;5.47;2.70;;;28.20;99.90;;;;;;5051078;28;20920;-77
2022/07/31 11:58:55;;;;;;;2.77;2.47;;;28.40;99.90;;;;;;5051845;28;20436;-77
2022/07/31 12:01:25;;;;;;;6.90;3.00;;;28.80;99.90;;;;;;5048349;28;20506;-79
2022/07/31 12:03:52;;;;;;;4.97;2.57;;;29.20;99.90;;;;;;5051573;28;20545;-78
2022/07/31 12:06:21;;;;;;;7.23;2.60;;;29.50;99.90;;;;;;5050967;28;20457;-79
2022/07/31 12:08:49;;;;;;;2.83;2.60;;;29.80;99.80;;;;;;5051309;28;20541;-77
2022/07/31 12:11:18;;;;;;;4.70;2.67;;;30.00;98.30;;;;;;5046738;28;20449;-77
2022/07/31 12:13:46;;;;;;;3.73;2.80;;;30.10;98.60;;;;;;5049126;28;20461;-77
2022/07/31 12:16:13;;;;;;;5.87;2.70;;;30.30;98.50;;;;;;5050862;28;21023;-74
2022/07/31 12:18:47;;;;;;;2.70;2.50;;;30.30;97.90;;;;;;5050628;28;21131;-77
2022/07/31 12:21:14;;;;;;;3.60;2.40;;;30.10;98.10;;;;;;5050624;28;20445;-78
2022/07/31 12:23:45;;;;;;;4.17;2.50;;;29.60;98.30;;;;;;5050628;28;20460;-79
2022/07/31 12:26:13;;;;;;;2.97;2.73;;;29.50;99.00;;;;;;5050074;28;20583;-78
2022/07/31 12:28:40;;;;;;;5.30;2.60;;;29.30;98.70;;;;;;5050076;28;20874;-79
2022/07/31 12:31:07;;;;;;;3.47;2.43;;;29.10;98.70;;;;;;5050148;28;20452;-77
2022/07/31 12:33:41;;;;;;;6.63;2.90;;;28.80;99.60;;;;;;5050710;28;20960;-74
2022/07/31 12:36:16;;;;;;;5.23;2.80;;;28.80;99.10;;;;;;5050211;28;20805;-77
2022/07/31 12:38:44;;;;;;;8.80;2.90;;;28.90;99.30;;;;;;5050087;28;20589;-77
2022/07/31 12:41:11;;;;;;;3.40;2.80;;;28.90;98.80;;;;;;5050365;28;20670;-76
2022/07/31 12:43:38;;;;;;;5.60;3.07;;;28.80;99.40;;;;;;5050539;28;20506;-78
2022/07/31 12:46:04;;;;;;;7.40;3.07;;;28.60;99.60;;;;;;5049852;28;20471;-79
2022/07/31 12:48:32;;;;;;;6.87;2.90;;;28.60;99.60;;;;;;5049928;28;20498;-77
2022/07/31 12:50:59;;;;;;;3.97;2.40;;;28.30;99.80;;;;;;5050276;28;20448;-78
2022/07/31 12:53:28;;;;;;;3.30;3.00;;;28.30;99.90;;;;;;5049809;28;20510;-78